Piney River, Virginia
Current Conditions -  °F | °C
As of 12:15 PM on Wednesday 26 Nov 2014 (Local Time) from KW13 Reporting Station
Overcast Overcast  
Wind Chill: 27°   Ceiling: 400
Heat Index: 32°   Visibility: 0.75mi
Dew Point: 32°   Wind: 5mph
Humidity: 99%   Direction: 350°N
Pressure: 29.95"   Gusts: NA
Location:  37.71°N, 79.02°W
Report Text: KW13 261715Z AUTO 35004KT 3/4SM OVC004 00/00 A2995 RMK AO1 P0003 T00001001
Loading
Personal Weather Stations






























Interactive Weather Map New forecast layout! Learn more

10-Day Weather Forecast

Advertisements
Track Severe Weather on mobile